Terminal Aerodrome Forecast
Issued by NWS

Home | Current Version | Previous Version | Text Only | Print | Product List | Glossary On
Versions: 1 2 3 4 5 6 7 8 9 10 11 12 13 14 15
000
FTUS42 TJSJ 202300 RRA
TAFJBQ
TAF
TJBQ 202343Z 2100/2124 11008KT P6SM VCSH SCT025 SCT100
     FM211500 08015G24KT P6SM SCT025
     FM212300 09008KT P6SM VCSH SCT025
      AMD NOT SKED 2102/2111=

USA.gov is the U.S. government's official web portal to all federal, state and local government web resources and services.